sensor_id;sensor_type;location;lat;lon;timestamp;P1;durP1;ratioP1;P2;durP2;ratioP2
45296;SDS011;31040;51.622;10.420;2023-03-01T00:01:02;12.60;;;7.40;;
45296;SDS011;31040;51.622;10.420;2023-03-01T00:03:30;10.65;;;6.32;;
45296;SDS011;31040;51.622;10.420;2023-03-01T00:05:58;10.40;;;6.82;;
45296;SDS011;31040;51.622;10.420;2023-03-01T00:08:25;11.18;;;6.25;;
45296;SDS011;31040;51.622;10.420;2023-03-01T00:11:02;12.48;;;7.45;;
45296;SDS011;31040;51.622;10.420;2023-03-01T00:13:29;10.40;;;6.70;;
45296;SDS011;31040;51.622;10.420;2023-03-01T00:15:56;10.35;;;6.00;;
45296;SDS011;31040;51.622;10.420;2023-03-01T00:18:24;11.55;;;6.10;;
45296;SDS011;31040;51.622;10.420;2023-03-01T00:20:52;10.15;;;5.93;;
45296;SDS011;31040;51.622;10.420;2023-03-01T00:23:19;10.73;;;7.05;;
45296;SDS011;31040;51.622;10.420;2023-03-01T00:25:47;8.88;;;6.80;;
45296;SDS011;31040;51.622;10.420;2023-03-01T00:28:14;9.35;;;5.38;;
45296;SDS011;31040;51.622;10.420;2023-03-01T00:30:42;10.15;;;6.50;;
45296;SDS011;31040;51.622;10.420;2023-03-01T00:33:09;10.50;;;6.47;;
45296;SDS011;31040;51.622;10.420;2023-03-01T00:35:37;10.07;;;6.32;;
45296;SDS011;31040;51.622;10.420;2023-03-01T00:38:04;12.57;;;5.75;;
45296;SDS011;31040;51.622;10.420;2023-03-01T00:40:32;10.20;;;5.78;;
45296;SDS011;31040;51.622;10.420;2023-03-01T00:43:00;12.18;;;6.07;;
45296;SDS011;31040;51.622;10.420;2023-03-01T00:45:27;10.10;;;5.47;;
45296;SDS011;31040;51.622;10.420;2023-03-01T00:47:55;9.18;;;5.90;;
45296;SDS011;31040;51.622;10.420;2023-03-01T00:50:23;11.90;;;6.30;;
45296;SDS011;31040;51.622;10.420;2023-03-01T00:52:54;9.07;;;6.10;;
45296;SDS011;31040;51.622;10.420;2023-03-01T00:55:22;9.10;;;5.10;;
45296;SDS011;31040;51.622;10.420;2023-03-01T00:57:50;11.35;;;6.40;;
45296;SDS011;31040;51.622;10.420;2023-03-01T01:00:18;8.90;;;6.15;;
45296;SDS011;31040;51.622;10.420;2023-03-01T01:02:45;10.45;;;5.90;;
45296;SDS011;31040;51.622;10.420;2023-03-01T01:05:13;9.45;;;5.75;;
45296;SDS011;31040;51.622;10.420;2023-03-01T01:07:41;10.02;;;6.05;;
45296;SDS011;31040;51.622;10.420;2023-03-01T01:10:08;8.38;;;6.05;;
45296;SDS011;31040;51.622;10.420;2023-03-01T01:12:39;9.30;;;6.03;;
45296;SDS011;31040;51.622;10.420;2023-03-01T01:15:06;8.45;;;5.93;;
45296;SDS011;31040;51.622;10.420;2023-03-01T01:17:34;9.90;;;5.63;;
45296;SDS011;31040;51.622;10.420;2023-03-01T01:20:01;9.85;;;5.63;;
45296;SDS011;31040;51.622;10.420;2023-03-01T01:22:28;8.38;;;5.13;;
45296;SDS011;31040;51.622;10.420;2023-03-01T01:24:56;10.38;;;7.32;;
45296;SDS011;31040;51.622;10.420;2023-03-01T01:27:23;9.02;;;5.47;;
45296;SDS011;31040;51.622;10.420;2023-03-01T01:29:52;7.07;;;5.85;;
45296;SDS011;31040;51.622;10.420;2023-03-01T01:32:19;9.43;;;6.10;;
45296;SDS011;31040;51.622;10.420;2023-03-01T01:34:46;10.82;;;6.25;;
45296;SDS011;31040;51.622;10.420;2023-03-01T01:37:14;8.35;;;5.32;;
45296;SDS011;31040;51.622;10.420;2023-03-01T01:39:41;9.18;;;6.68;;
45296;SDS011;31040;51.622;10.420;2023-03-01T01:42:16;10.70;;;5.97;;
45296;SDS011;31040;51.622;10.420;2023-03-01T01:44:47;11.10;;;6.47;;
45296;SDS011;31040;51.622;10.420;2023-03-01T01:47:16;9.45;;;5.60;;
45296;SDS011;31040;51.622;10.420;2023-03-01T01:49:53;9.90;;;6.03;;
45296;SDS011;31040;51.622;10.420;2023-03-01T01:57:26;11.00;;;5.80;;
45296;SDS011;31040;51.622;10.420;2023-03-01T01:59:55;11.77;;;6.47;;
45296;SDS011;31040;51.622;10.420;2023-03-01T02:02:24;7.88;;;5.47;;
45296;SDS011;31040;51.622;10.420;2023-03-01T02:04:52;8.70;;;5.47;;
45296;SDS011;31040;51.622;10.420;2023-03-01T02:07:22;10.38;;;7.05;;
45296;SDS011;31040;51.622;10.420;2023-03-01T02:09:51;11.40;;;6.20;;
45296;SDS011;31040;51.622;10.420;2023-03-01T02:12:20;9.85;;;6.13;;
45296;SDS011;31040;51.622;10.420;2023-03-01T02:14:48;9.82;;;6.03;;
45296;SDS011;31040;51.622;10.420;2023-03-01T02:17:16;10.05;;;6.45;;
45296;SDS011;31040;51.622;10.420;2023-03-01T02:20:04;9.18;;;7.05;;
45296;SDS011;31040;51.622;10.420;2023-03-01T02:22:35;10.38;;;6.70;;
45296;SDS011;31040;51.622;10.420;2023-03-01T02:28:24;9.80;;;6.50;;
45296;SDS011;31040;51.622;10.420;2023-03-01T02:30:24;10.20;;;6.50;;
45296;SDS011;31040;51.622;10.420;2023-03-01T02:32:52;9.75;;;6.20;;
45296;SDS011;31040;51.622;10.420;2023-03-01T02:35:20;10.30;;;7.10;;
45296;SDS011;31040;51.622;10.420;2023-03-01T02:37:48;12.70;;;5.93;;
45296;SDS011;31040;51.622;10.420;2023-03-01T02:40:16;10.32;;;6.18;;
45296;SDS011;31040;51.622;10.420;2023-03-01T02:42:47;10.07;;;7.05;;
45296;SDS011;31040;51.622;10.420;2023-03-01T02:45:16;9.85;;;5.82;;
45296;SDS011;31040;51.622;10.420;2023-03-01T02:47:44;10.50;;;6.60;;
45296;SDS011;31040;51.622;10.420;2023-03-01T02:50:18;9.20;;;5.72;;
45296;SDS011;31040;51.622;10.420;2023-03-01T02:55:36;14.30;;;7.10;;
45296;SDS011;31040;51.622;10.420;2023-03-01T02:58:03;10.05;;;6.10;;
45296;SDS011;31040;51.622;10.420;2023-03-01T03:00:33;11.43;;;6.15;;
45296;SDS011;31040;51.622;10.420;2023-03-01T03:03:05;9.57;;;6.10;;
45296;SDS011;31040;51.622;10.420;2023-03-01T03:05:33;8.55;;;6.55;;
45296;SDS011;31040;51.622;10.420;2023-03-01T03:08:01;10.13;;;6.60;;
45296;SDS011;31040;51.622;10.420;2023-03-01T03:10:30;10.25;;;6.53;;
45296;SDS011;31040;51.622;10.420;2023-03-01T03:13:00;10.82;;;6.18;;
45296;SDS011;31040;51.622;10.420;2023-03-01T03:15:28;9.77;;;5.90;;
45296;SDS011;31040;51.622;10.420;2023-03-01T03:17:57;14.02;;;6.15;;
45296;SDS011;31040;51.622;10.420;2023-03-01T03:20:26;10.05;;;5.75;;
45296;SDS011;31040;51.622;10.420;2023-03-01T03:22:54;9.38;;;6.13;;
45296;SDS011;31040;51.622;10.420;2023-03-01T03:25:22;12.18;;;6.57;;
45296;SDS011;31040;51.622;10.420;2023-03-01T03:27:50;10.60;;;5.35;;
45296;SDS011;31040;51.622;10.420;2023-03-01T03:30:24;9.48;;;5.88;;
45296;SDS011;31040;51.622;10.420;2023-03-01T03:32:52;10.98;;;5.97;;
45296;SDS011;31040;51.622;10.420;2023-03-01T03:37:46;8.57;;;5.35;;
45296;SDS011;31040;51.622;10.420;2023-03-01T03:40:30;8.38;;;5.22;;
45296;SDS011;31040;51.622;10.420;2023-03-01T03:42:58;7.47;;;5.30;;
45296;SDS011;31040;51.622;10.420;2023-03-01T03:45:25;10.70;;;5.28;;
45296;SDS011;31040;51.622;10.420;2023-03-01T03:47:52;11.82;;;6.57;;
45296;SDS011;31040;51.622;10.420;2023-03-01T03:50:20;11.45;;;5.93;;
45296;SDS011;31040;51.622;10.420;2023-03-01T03:52:47;13.68;;;6.78;;
45296;SDS011;31040;51.622;10.420;2023-03-01T03:55:14;8.35;;;5.63;;
45296;SDS011;31040;51.622;10.420;2023-03-01T03:57:48;9.23;;;6.13;;
45296;SDS011;31040;51.622;10.420;2023-03-01T04:00:20;10.25;;;5.90;;
45296;SDS011;31040;51.622;10.420;2023-03-01T04:02:50;11.38;;;5.43;;
45296;SDS011;31040;51.622;10.420;2023-03-01T04:05:22;9.02;;;6.00;;
45296;SDS011;31040;51.622;10.420;2023-03-01T04:07:50;9.75;;;6.13;;
45296;SDS011;31040;51.622;10.420;2023-03-01T04:10:28;9.02;;;5.65;;
45296;SDS011;31040;51.622;10.420;2023-03-01T04:12:56;10.40;;;6.15;;
45296;SDS011;31040;51.622;10.420;2023-03-01T04:15:23;8.30;;;5.75;;
45296;SDS011;31040;51.622;10.420;2023-03-01T04:17:51;9.40;;;6.10;;
45296;SDS011;31040;51.622;10.420;2023-03-01T04:20:20;7.47;;;5.00;;
45296;SDS011;31040;51.622;10.420;2023-03-01T04:25:24;8.50;;;6.00;;
45296;SDS011;31040;51.622;10.420;2023-03-01T04:27:51;8.85;;;5.65;;
45296;SDS011;31040;51.622;10.420;2023-03-01T04:30:18;9.32;;;5.28;;
45296;SDS011;31040;51.622;10.420;2023-03-01T04:32:46;8.50;;;5.80;;
45296;SDS011;31040;51.622;10.420;2023-03-01T04:35:13;9.40;;;5.30;;
45296;SDS011;31040;51.622;10.420;2023-03-01T04:37:40;8.70;;;5.55;;
45296;SDS011;31040;51.622;10.420;2023-03-01T04:40:08;9.80;;;5.50;;
45296;SDS011;31040;51.622;10.420;2023-03-01T04:42:42;11.35;;;6.32;;
45296;SDS011;31040;51.622;10.420;2023-03-01T04:45:09;10.15;;;6.03;;
45296;SDS011;31040;51.622;10.420;2023-03-01T04:47:40;8.73;;;5.47;;
45296;SDS011;31040;51.622;10.420;2023-03-01T04:50:09;10.32;;;5.25;;
45296;SDS011;31040;51.622;10.420;2023-03-01T04:52:37;9.10;;;4.82;;
45296;SDS011;31040;51.622;10.420;2023-03-01T04:55:04;9.43;;;5.55;;
45296;SDS011;31040;51.622;10.420;2023-03-01T04:57:32;8.38;;;5.40;;
45296;SDS011;31040;51.622;10.420;2023-03-01T05:00:00;10.60;;;5.55;;
45296;SDS011;31040;51.622;10.420;2023-03-01T05:02:27;8.50;;;6.38;;
45296;SDS011;31040;51.622;10.420;2023-03-01T05:04:55;10.13;;;6.30;;
45296;SDS011;31040;51.622;10.420;2023-03-01T05:07:23;11.63;;;6.40;;
45296;SDS011;31040;51.622;10.420;2023-03-01T05:09:52;11.10;;;6.57;;
45296;SDS011;31040;51.622;10.420;2023-03-01T05:12:20;11.23;;;6.15;;
45296;SDS011;31040;51.622;10.420;2023-03-01T05:14:47;9.55;;;5.13;;
45296;SDS011;31040;51.622;10.420;2023-03-01T05:17:17;8.25;;;4.95;;
45296;SDS011;31040;51.622;10.420;2023-03-01T05:19:44;9.93;;;5.32;;
45296;SDS011;31040;51.622;10.420;2023-03-01T05:22:12;9.77;;;5.78;;
45296;SDS011;31040;51.622;10.420;2023-03-01T05:24:39;6.55;;;4.90;;
45296;SDS011;31040;51.622;10.420;2023-03-01T05:27:07;11.10;;;5.47;;
45296;SDS011;31040;51.622;10.420;2023-03-01T05:29:34;7.07;;;4.93;;
45296;SDS011;31040;51.622;10.420;2023-03-01T05:32:01;9.55;;;5.10;;
45296;SDS011;31040;51.622;10.420;2023-03-01T05:34:30;7.35;;;5.50;;
45296;SDS011;31040;51.622;10.420;2023-03-01T05:36:58;9.75;;;5.20;;
45296;SDS011;31040;51.622;10.420;2023-03-01T05:39:26;9.82;;;6.10;;
45296;SDS011;31040;51.622;10.420;2023-03-01T05:41:54;7.78;;;4.95;;
45296;SDS011;31040;51.622;10.420;2023-03-01T05:44:21;8.38;;;4.85;;
45296;SDS011;31040;51.622;10.420;2023-03-01T05:46:49;10.68;;;6.40;;
45296;SDS011;31040;51.622;10.420;2023-03-01T05:49:16;9.90;;;5.82;;
45296;SDS011;31040;51.622;10.420;2023-03-01T05:51:47;9.85;;;5.47;;
45296;SDS011;31040;51.622;10.420;2023-03-01T05:54:15;10.70;;;5.65;;
45296;SDS011;31040;51.622;10.420;2023-03-01T05:56:42;9.23;;;5.28;;
45296;SDS011;31040;51.622;10.420;2023-03-01T05:59:09;9.65;;;5.70;;
45296;SDS011;31040;51.622;10.420;2023-03-01T06:01:37;13.40;;;6.78;;
45296;SDS011;31040;51.622;10.420;2023-03-01T06:04:04;8.38;;;5.22;;
45296;SDS011;31040;51.622;10.420;2023-03-01T06:06:35;12.57;;;7.03;;
45296;SDS011;31040;51.622;10.420;2023-03-01T06:09:04;12.65;;;6.22;;
45296;SDS011;31040;51.622;10.420;2023-03-01T06:11:34;8.93;;;5.85;;
45296;SDS011;31040;51.622;10.420;2023-03-01T06:14:01;10.25;;;5.75;;
45296;SDS011;31040;51.622;10.420;2023-03-01T06:16:29;12.32;;;6.53;;
45296;SDS011;31040;51.622;10.420;2023-03-01T06:18:56;9.38;;;5.72;;
45296;SDS011;31040;51.622;10.420;2023-03-01T06:21:24;15.82;;;6.60;;
45296;SDS011;31040;51.622;10.420;2023-03-01T06:23:51;15.23;;;7.07;;
45296;SDS011;31040;51.622;10.420;2023-03-01T06:26:18;14.95;;;6.68;;
45296;SDS011;31040;51.622;10.420;2023-03-01T06:28:46;14.30;;;6.90;;
45296;SDS011;31040;51.622;10.420;2023-03-01T06:31:13;26.52;;;10.50;;
45296;SDS011;31040;51.622;10.420;2023-03-01T06:33:40;15.05;;;7.78;;
45296;SDS011;31040;51.622;10.420;2023-03-01T06:36:07;24.63;;;9.02;;
45296;SDS011;31040;51.622;10.420;2023-03-01T06:38:36;13.77;;;8.10;;
45296;SDS011;31040;51.622;10.420;2023-03-01T06:41:03;23.27;;;8.75;;
45296;SDS011;31040;51.622;10.420;2023-03-01T06:43:30;16.65;;;8.98;;
45296;SDS011;31040;51.622;10.420;2023-03-01T06:45:58;20.63;;;9.60;;
45296;SDS011;31040;51.622;10.420;2023-03-01T06:48:25;17.92;;;10.23;;
45296;SDS011;31040;51.622;10.420;2023-03-01T06:50:52;15.88;;;8.45;;
45296;SDS011;31040;51.622;10.420;2023-03-01T06:53:20;17.20;;;8.05;;
45296;SDS011;31040;51.622;10.420;2023-03-01T06:55:47;16.27;;;8.15;;
45296;SDS011;31040;51.622;10.420;2023-03-01T06:58:14;14.27;;;8.48;;
45296;SDS011;31040;51.622;10.420;2023-03-01T07:00:41;18.90;;;8.30;;
45296;SDS011;31040;51.622;10.420;2023-03-01T07:03:09;13.52;;;8.43;;
45296;SDS011;31040;51.622;10.420;2023-03-01T07:05:37;17.33;;;8.35;;
45296;SDS011;31040;51.622;10.420;2023-03-01T07:08:04;15.68;;;9.75;;
45296;SDS011;31040;51.622;10.420;2023-03-01T07:10:31;14.98;;;7.90;;
45296;SDS011;31040;51.622;10.420;2023-03-01T07:12:59;16.50;;;8.85;;
45296;SDS011;31040;51.622;10.420;2023-03-01T07:15:26;16.10;;;9.00;;
45296;SDS011;31040;51.622;10.420;2023-03-01T07:17:55;15.32;;;9.15;;
45296;SDS011;31040;51.622;10.420;2023-03-01T07:20:22;16.23;;;9.15;;
45296;SDS011;31040;51.622;10.420;2023-03-01T07:22:52;16.42;;;8.88;;
45296;SDS011;31040;51.622;10.420;2023-03-01T07:25:19;18.38;;;9.35;;
45296;SDS011;31040;51.622;10.420;2023-03-01T07:27:50;18.67;;;9.52;;
45296;SDS011;31040;51.622;10.420;2023-03-01T07:30:18;18.92;;;11.13;;
45296;SDS011;31040;51.622;10.420;2023-03-01T07:32:46;16.63;;;8.82;;
45296;SDS011;31040;51.622;10.420;2023-03-01T07:35:13;20.50;;;10.73;;
45296;SDS011;31040;51.622;10.420;2023-03-01T07:37:41;16.95;;;10.00;;
45296;SDS011;31040;51.622;10.420;2023-03-01T07:40:08;16.55;;;10.20;;
45296;SDS011;31040;51.622;10.420;2023-03-01T07:42:36;16.65;;;9.73;;
45296;SDS011;31040;51.622;10.420;2023-03-01T07:45:04;15.60;;;8.98;;
45296;SDS011;31040;51.622;10.420;2023-03-01T07:47:32;19.80;;;10.02;;
45296;SDS011;31040;51.622;10.420;2023-03-01T07:49:59;14.93;;;8.82;;
45296;SDS011;31040;51.622;10.420;2023-03-01T07:52:27;17.83;;;9.65;;
45296;SDS011;31040;51.622;10.420;2023-03-01T07:54:54;14.52;;;9.25;;
45296;SDS011;31040;51.622;10.420;2023-03-01T07:57:22;16.10;;;9.48;;
45296;SDS011;31040;51.622;10.420;2023-03-01T07:59:49;27.60;;;11.63;;
45296;SDS011;31040;51.622;10.420;2023-03-01T08:02:16;18.00;;;10.15;;
45296;SDS011;31040;51.622;10.420;2023-03-01T08:04:44;18.70;;;11.30;;
45296;SDS011;31040;51.622;10.420;2023-03-01T08:07:11;16.05;;;9.95;;
45296;SDS011;31040;51.622;10.420;2023-03-01T08:09:38;13.55;;;9.52;;
45296;SDS011;31040;51.622;10.420;2023-03-01T08:12:05;17.92;;;10.23;;
45296;SDS011;31040;51.622;10.420;2023-03-01T08:14:33;14.82;;;9.05;;
45296;SDS011;31040;51.622;10.420;2023-03-01T08:17:00;13.15;;;9.50;;
45296;SDS011;31040;51.622;10.420;2023-03-01T08:19:29;16.73;;;9.73;;
45296;SDS011;31040;51.622;10.420;2023-03-01T08:21:57;15.00;;;9.88;;
45296;SDS011;31040;51.622;10.420;2023-03-01T08:24:24;12.57;;;7.72;;
45296;SDS011;31040;51.622;10.420;2023-03-01T08:26:52;11.95;;;7.25;;
45296;SDS011;31040;51.622;10.420;2023-03-01T08:29:19;14.85;;;7.30;;
45296;SDS011;31040;51.622;10.420;2023-03-01T08:31:47;10.35;;;6.72;;
45296;SDS011;31040;51.622;10.420;2023-03-01T08:34:15;11.32;;;6.88;;
45296;SDS011;31040;51.622;10.420;2023-03-01T08:36:44;16.65;;;7.45;;
45296;SDS011;31040;51.622;10.420;2023-03-01T08:39:12;9.38;;;6.03;;
45296;SDS011;31040;51.622;10.420;2023-03-01T08:41:40;10.27;;;5.95;;
45296;SDS011;31040;51.622;10.420;2023-03-01T08:44:07;11.10;;;5.43;;
45296;SDS011;31040;51.622;10.420;2023-03-01T08:46:40;6.80;;;4.50;;
45296;SDS011;31040;51.622;10.420;2023-03-01T08:49:10;9.35;;;5.43;;
45296;SDS011;31040;51.622;10.420;2023-03-01T08:51:37;10.32;;;6.07;;
45296;SDS011;31040;51.622;10.420;2023-03-01T08:54:06;8.63;;;5.70;;
45296;SDS011;31040;51.622;10.420;2023-03-01T08:56:33;6.10;;;4.15;;
45296;SDS011;31040;51.622;10.420;2023-03-01T08:59:01;8.07;;;5.28;;
45296;SDS011;31040;51.622;10.420;2023-03-01T09:01:28;8.50;;;5.30;;
45296;SDS011;31040;51.622;10.420;2023-03-01T09:03:55;7.03;;;4.88;;
45296;SDS011;31040;51.622;10.420;2023-03-01T09:06:23;6.55;;;4.28;;
45296;SDS011;31040;51.622;10.420;2023-03-01T09:08:50;9.88;;;5.72;;
45296;SDS011;31040;51.622;10.420;2023-03-01T09:11:19;8.35;;;4.90;;
45296;SDS011;31040;51.622;10.420;2023-03-01T09:13:46;9.65;;;6.30;;
45296;SDS011;31040;51.622;10.420;2023-03-01T09:16:14;7.97;;;4.93;;
45296;SDS011;31040;51.622;10.420;2023-03-01T09:18:43;7.93;;;5.05;;
45296;SDS011;31040;51.622;10.420;2023-03-01T09:21:11;7.90;;;4.97;;
45296;SDS011;31040;51.622;10.420;2023-03-01T09:23:40;7.55;;;4.82;;
45296;SDS011;31040;51.622;10.420;2023-03-01T09:26:25;7.18;;;4.60;;
45296;SDS011;31040;51.622;10.420;2023-03-01T09:28:55;10.65;;;4.32;;
45296;SDS011;31040;51.622;10.420;2023-03-01T09:31:23;7.05;;;4.32;;
45296;SDS011;31040;51.622;10.420;2023-03-01T09:33:51;7.63;;;4.47;;
45296;SDS011;31040;51.622;10.420;2023-03-01T09:36:20;8.57;;;4.70;;
45296;SDS011;31040;51.622;10.420;2023-03-01T09:38:48;9.80;;;6.20;;
45296;SDS011;31040;51.622;10.420;2023-03-01T09:46:44;5.97;;;4.55;;
45296;SDS011;31040;51.622;10.420;2023-03-01T09:49:13;8.45;;;4.88;;
45296;SDS011;31040;51.622;10.420;2023-03-01T09:51:55;7.78;;;4.28;;
45296;SDS011;31040;51.622;10.420;2023-03-01T09:54:23;7.45;;;5.00;;
45296;SDS011;31040;51.622;10.420;2023-03-01T09:56:57;9.55;;;5.78;;
45296;SDS011;31040;51.622;10.420;2023-03-01T09:59:28;8.02;;;5.57;;
45296;SDS011;31040;51.622;10.420;2023-03-01T10:05:11;6.45;;;4.45;;
45296;SDS011;31040;51.622;10.420;2023-03-01T10:10:27;9.77;;;5.65;;
45296;SDS011;31040;51.622;10.420;2023-03-01T10:12:55;10.23;;;4.78;;
45296;SDS011;31040;51.622;10.420;2023-03-01T10:15:39;7.90;;;5.05;;
45296;SDS011;31040;51.622;10.420;2023-03-01T10:18:16;8.52;;;4.95;;
45296;SDS011;31040;51.622;10.420;2023-03-01T10:20:58;11.63;;;5.50;;
45296;SDS011;31040;51.622;10.420;2023-03-01T10:23:28;7.30;;;5.00;;
45296;SDS011;31040;51.622;10.420;2023-03-01T10:31:24;8.70;;;5.18;;
45296;SDS011;31040;51.622;10.420;2023-03-01T10:33:55;8.30;;;5.05;;
45296;SDS011;31040;51.622;10.420;2023-03-01T10:36:23;6.60;;;5.18;;
45296;SDS011;31040;51.622;10.420;2023-03-01T10:38:56;7.05;;;4.60;;
45296;SDS011;31040;51.622;10.420;2023-03-01T10:41:25;6.60;;;4.32;;
45296;SDS011;31040;51.622;10.420;2023-03-01T10:43:56;10.32;;;4.47;;
45296;SDS011;31040;51.622;10.420;2023-03-01T10:46:34;6.47;;;4.20;;
45296;SDS011;31040;51.622;10.420;2023-03-01T10:51:32;6.93;;;3.75;;
45296;SDS011;31040;51.622;10.420;2023-03-01T10:53:59;6.65;;;4.38;;
45296;SDS011;31040;51.622;10.420;2023-03-01T10:56:27;6.40;;;4.35;;
45296;SDS011;31040;51.622;10.420;2023-03-01T10:58:58;7.57;;;4.05;;
45296;SDS011;31040;51.622;10.420;2023-03-01T11:01:27;6.82;;;3.55;;
45296;SDS011;31040;51.622;10.420;2023-03-01T11:06:33;7.38;;;4.03;;
45296;SDS011;31040;51.622;10.420;2023-03-01T11:09:12;9.05;;;3.97;;
45296;SDS011;31040;51.622;10.420;2023-03-01T11:11:40;6.93;;;4.07;;
45296;SDS011;31040;51.622;10.420;2023-03-01T11:17:00;4.25;;;3.72;;
45296;SDS011;31040;51.622;10.420;2023-03-01T11:24:44;5.18;;;3.58;;
45296;SDS011;31040;51.622;10.420;2023-03-01T11:27:30;4.88;;;3.25;;
45296;SDS011;31040;51.622;10.420;2023-03-01T11:32:26;4.97;;;3.20;;
45296;SDS011;31040;51.622;10.420;2023-03-01T11:34:57;5.60;;;2.97;;
45296;SDS011;31040;51.622;10.420;2023-03-01T11:45:24;4.65;;;3.65;;
45296;SDS011;31040;51.622;10.420;2023-03-01T11:50:44;4.95;;;3.30;;
45296;SDS011;31040;51.622;10.420;2023-03-01T11:53:20;4.75;;;2.72;;
45296;SDS011;31040;51.622;10.420;2023-03-01T11:56:25;4.95;;;3.15;;
45296;SDS011;31040;51.622;10.420;2023-03-01T12:06:50;6.38;;;3.78;;
45296;SDS011;31040;51.622;10.420;2023-03-01T12:09:38;5.85;;;3.83;;
45296;SDS011;31040;51.622;10.420;2023-03-01T12:19:56;8.00;;;4.00;;
45296;SDS011;31040;51.622;10.420;2023-03-01T12:22:44;8.00;;;4.38;;
45296;SDS011;31040;51.622;10.420;2023-03-01T12:28:11;6.28;;;4.25;;
45296;SDS011;31040;51.622;10.420;2023-03-01T12:30:47;6.22;;;4.18;;
45296;SDS011;31040;51.622;10.420;2023-03-01T12:33:22;7.47;;;4.85;;
45296;SDS011;31040;51.622;10.420;2023-03-01T12:38:48;5.85;;;4.07;;
45296;SDS011;31040;51.622;10.420;2023-03-01T12:44:28;5.75;;;4.28;;
45296;SDS011;31040;51.622;10.420;2023-03-01T12:47:07;7.43;;;4.63;;
45296;SDS011;31040;51.622;10.420;2023-03-01T12:49:40;8.60;;;4.50;;
45296;SDS011;31040;51.622;10.420;2023-03-01T12:52:17;8.57;;;4.78;;
45296;SDS011;31040;51.622;10.420;2023-03-01T12:54:47;9.13;;;5.68;;
45296;SDS011;31040;51.622;10.420;2023-03-01T12:57:21;6.10;;;4.72;;
45296;SDS011;31040;51.622;10.420;2023-03-01T13:05:33;6.07;;;4.57;;
45296;SDS011;31040;51.622;10.420;2023-03-01T13:08:16;6.15;;;4.03;;
45296;SDS011;31040;51.622;10.420;2023-03-01T13:10:49;9.93;;;4.30;;
45296;SDS011;31040;51.622;10.420;2023-03-01T13:15:48;4.75;;;3.33;;
45296;SDS011;31040;51.622;10.420;2023-03-01T13:20:55;10.37;;;3.80;;
45296;SDS011;31040;51.622;10.420;2023-03-01T13:23:24;3.42;;;2.70;;
45296;SDS011;31040;51.622;10.420;2023-03-01T13:30:58;5.30;;;3.67;;
45296;SDS011;31040;51.622;10.420;2023-03-01T13:38:36;5.15;;;3.22;;
45296;SDS011;31040;51.622;10.420;2023-03-01T13:41:04;5.50;;;3.67;;
45296;SDS011;31040;51.622;10.420;2023-03-01T13:43:32;6.95;;;3.83;;
45296;SDS011;31040;51.622;10.420;2023-03-01T13:46:00;4.93;;;3.80;;
45296;SDS011;31040;51.622;10.420;2023-03-01T13:48:29;6.50;;;3.72;;
45296;SDS011;31040;51.622;10.420;2023-03-01T13:51:01;8.35;;;3.75;;
45296;SDS011;31040;51.622;10.420;2023-03-01T13:53:30;5.15;;;3.45;;
45296;SDS011;31040;51.622;10.420;2023-03-01T13:56:00;5.60;;;3.42;;
45296;SDS011;31040;51.622;10.420;2023-03-01T13:58:29;5.45;;;3.47;;
45296;SDS011;31040;51.622;10.420;2023-03-01T14:01:02;5.90;;;3.90;;
45296;SDS011;31040;51.622;10.420;2023-03-01T14:03:31;4.45;;;3.80;;
45296;SDS011;31040;51.622;10.420;2023-03-01T14:08:39;7.68;;;4.70;;
45296;SDS011;31040;51.622;10.420;2023-03-01T14:11:18;4.68;;;2.83;;
45296;SDS011;31040;51.622;10.420;2023-03-01T14:16:45;6.90;;;3.35;;
45296;SDS011;31040;51.622;10.420;2023-03-01T14:19:25;4.25;;;3.17;;
45296;SDS011;31040;51.622;10.420;2023-03-01T14:24:55;6.93;;;3.45;;
45296;SDS011;31040;51.622;10.420;2023-03-01T14:27:25;5.68;;;5.05;;
45296;SDS011;31040;51.622;10.420;2023-03-01T14:29:54;5.53;;;3.88;;
45296;SDS011;31040;51.622;10.420;2023-03-01T14:32:24;6.05;;;3.95;;
45296;SDS011;31040;51.622;10.420;2023-03-01T14:34:52;5.57;;;3.80;;
45296;SDS011;31040;51.622;10.420;2023-03-01T14:37:30;5.55;;;3.55;;
45296;SDS011;31040;51.622;10.420;2023-03-01T14:39:58;7.45;;;3.63;;
45296;SDS011;31040;51.622;10.420;2023-03-01T14:42:35;5.32;;;3.85;;
45296;SDS011;31040;51.622;10.420;2023-03-01T14:45:02;5.20;;;4.43;;
45296;SDS011;31040;51.622;10.420;2023-03-01T14:47:31;4.82;;;4.18;;
45296;SDS011;31040;51.622;10.420;2023-03-01T14:50:01;6.10;;;4.43;;
45296;SDS011;31040;51.622;10.420;2023-03-01T14:52:39;7.32;;;4.30;;
45296;SDS011;31040;51.622;10.420;2023-03-01T14:55:11;6.25;;;3.95;;
45296;SDS011;31040;51.622;10.420;2023-03-01T14:57:42;10.05;;;4.95;;
45296;SDS011;31040;51.622;10.420;2023-03-01T15:00:13;7.00;;;3.88;;
45296;SDS011;31040;51.622;10.420;2023-03-01T15:02:43;7.07;;;4.13;;
45296;SDS011;31040;51.622;10.420;2023-03-01T15:05:13;5.78;;;3.92;;
45296;SDS011;31040;51.622;10.420;2023-03-01T15:07:41;8.88;;;5.10;;
45296;SDS011;31040;51.622;10.420;2023-03-01T15:10:17;5.83;;;3.83;;
45296;SDS011;31040;51.622;10.420;2023-03-01T15:12:46;5.93;;;4.43;;
45296;SDS011;31040;51.622;10.420;2023-03-01T15:17:51;6.47;;;4.10;;
45296;SDS011;31040;51.622;10.420;2023-03-01T15:20:22;7.80;;;4.90;;
45296;SDS011;31040;51.622;10.420;2023-03-01T15:22:52;6.78;;;3.88;;
45296;SDS011;31040;51.622;10.420;2023-03-01T15:25:21;6.22;;;4.20;;
45296;SDS011;31040;51.622;10.420;2023-03-01T15:27:49;7.55;;;4.60;;
45296;SDS011;31040;51.622;10.420;2023-03-01T15:30:18;5.55;;;3.47;;
45296;SDS011;31040;51.622;10.420;2023-03-01T15:32:46;5.47;;;3.72;;
45296;SDS011;31040;51.622;10.420;2023-03-01T15:38:01;6.07;;;4.40;;
45296;SDS011;31040;51.622;10.420;2023-03-01T15:40:29;6.75;;;4.85;;
45296;SDS011;31040;51.622;10.420;2023-03-01T15:43:03;8.15;;;4.15;;
45296;SDS011;31040;51.622;10.420;2023-03-01T15:45:31;6.28;;;4.20;;
45296;SDS011;31040;51.622;10.420;2023-03-01T15:48:05;7.72;;;4.50;;
45296;SDS011;31040;51.622;10.420;2023-03-01T15:50:34;5.38;;;4.10;;
45296;SDS011;31040;51.622;10.420;2023-03-01T15:53:10;9.02;;;4.80;;
45296;SDS011;31040;51.622;10.420;2023-03-01T15:55:38;5.65;;;3.72;;
45296;SDS011;31040;51.622;10.420;2023-03-01T15:58:08;5.03;;;3.72;;
45296;SDS011;31040;51.622;10.420;2023-03-01T16:00:36;5.85;;;3.78;;
45296;SDS011;31040;51.622;10.420;2023-03-01T16:03:23;7.63;;;5.10;;
45296;SDS011;31040;51.622;10.420;2023-03-01T16:05:50;6.03;;;4.15;;
45296;SDS011;31040;51.622;10.420;2023-03-01T16:08:18;7.65;;;3.67;;
45296;SDS011;31040;51.622;10.420;2023-03-01T16:10:45;6.15;;;3.60;;
45296;SDS011;31040;51.622;10.420;2023-03-01T16:13:16;5.63;;;4.55;;
45296;SDS011;31040;51.622;10.420;2023-03-01T16:15:44;14.73;;;9.63;;
45296;SDS011;31040;51.622;10.420;2023-03-01T16:18:11;5.25;;;3.35;;
45296;SDS011;31040;51.622;10.420;2023-03-01T16:20:38;10.68;;;9.57;;
45296;SDS011;31040;51.622;10.420;2023-03-01T16:23:07;5.60;;;4.47;;
45296;SDS011;31040;51.622;10.420;2023-03-01T16:25:35;8.23;;;4.78;;
45296;SDS011;31040;51.622;10.420;2023-03-01T16:28:02;7.78;;;5.25;;
45296;SDS011;31040;51.622;10.420;2023-03-01T16:30:35;7.57;;;4.60;;
45296;SDS011;31040;51.622;10.420;2023-03-01T16:33:03;8.57;;;3.95;;
45296;SDS011;31040;51.622;10.420;2023-03-01T16:35:51;6.90;;;4.43;;
45296;SDS011;31040;51.622;10.420;2023-03-01T16:38:19;6.75;;;4.28;;
45296;SDS011;31040;51.622;10.420;2023-03-01T16:40:47;7.38;;;3.80;;